Etusivu
METAR-TAF:

METAR-TAF

Lentoasemat :

Ronneby, Ruotsi

Ronnebyn lentoasema

Leveyspiiri: 56-16N, Pituuspiiri: 015-17E, korkeus merenpinnasta: 58 m

Tämänhetkinen sää

Tämä raportti tehtiin 36 minuuttia sitten, kello 17.20 UTC
Tuuli 3 kn idästä/kaakosta
Lämpötila 1°C
Kosteus 93%
Ilmanpaine 1022 hPa
Näkyvyys 10 km tai enemmän
Hajonneita pilviä 4300 ft:n korkeudessa

METAR: ESDF 191720Z 11003KT 9999 BKN043 01/00 Q1022

Aika: 18:56 (17:56 UTC)

Sääennuste

Tämä raportti tehtiin 26 minuuttia sitten, kello 17.30 UTC
Ennuste voimassa 19. päivästä klo 18 UTC - 19. päivään klo 23 UTC
Tuuli 4 kn idästä/kaakosta
Näkyvyys 10 km tai enemmän
Hajanaisia pilviä 1500 ft:n korkeudessa
Hajonneita pilviä 4000 ft:n korkeudessa
Todennäköisyys 40%
19. päivästä klo 18 UTC - 19. päivään klo 23 UTC
Hajonneita pilviä 1400 ft:n korkeudessa

TAF: ESDF 191730Z 1918/1923 11004KT 9999 SCT015 BKN040 PROB40 1918/1923 BKN014

Säähavainnot ja -ennusteet yli 4000 lentoasemalta (METAR- ja TAF-raportit).

Käytössä olevat sääasemat on merkitty karttaan keltaisilla ja punaisilla pisteillä.

Aseta hiiri pisteen päälle nähdäksesi sääaseman nimen.

Klikkaa sitten nähdäksesi säähavainnot ja -ennusteet.

Kartan vaihtaminen: klikkaa mustalla rastilla varustettuja vihreitä pisteitä, niin voit zoomata sisään; viivalla varustettua vihreää pistettä, niin voit zoomata ulos tai vihreitä nuolia, niin pääset viereisille kartoille.


METAR-TAF: